Time;durP1;ratioP1;P1;durP2;ratioP2;P2;SDS_P1;SDS_P2;PMS_P1;PMS_P2;Temp;Humidity;BMP_temperature;BMP_pressure;BME280_temperature;BME280_humidity;BME280_pressure;Samples;Min_cycle;Max_cycle;Signal;HPM_P1;HPM_P2
2023/03/17 00:00:13;;;;;;;2.20;1.95;;;15.30;52.00;;;;;;5053025;28;20224;-59
2023/03/17 00:02:41;;;;;;;2.85;2.08;;;15.30;52.00;;;;;;5053680;28;20523;-59
2023/03/17 00:05:15;;;;;;;2.08;1.88;;;15.30;52.00;;;;;;5052377;28;20210;-59
2023/03/17 00:07:40;;;;;;;2.55;1.80;;;15.20;51.90;;;;;;5051663;28;20175;-58
2023/03/17 00:10:14;;;;;;;2.25;2.05;;;15.20;51.90;;;;;;5053259;28;20222;-57
2023/03/17 00:12:40;;;;;;;2.03;1.83;;;15.20;51.90;;;;;;5052269;28;20637;-58
2023/03/17 00:15:06;;;;;;;3.53;2.60;;;15.20;52.00;;;;;;5052631;28;20237;-57
2023/03/17 00:17:32;;;;;;;2.10;1.80;;;15.20;52.00;;;;;;5053284;28;20182;-57
2023/03/17 00:19:57;;;;;;;2.22;1.95;;;15.20;52.00;;;;;;5051528;28;20314;-58
2023/03/17 00:22:23;;;;;;;2.17;1.70;;;15.20;52.00;;;;;;5052276;28;20217;-56
2023/03/17 00:24:48;;;;;;;1.92;1.83;;;15.20;52.00;;;;;;5051576;28;20241;-58
2023/03/17 00:27:14;;;;;;;2.53;1.88;;;15.20;52.00;;;;;;5053123;28;20265;-57
2023/03/17 00:29:39;;;;;;;2.45;1.73;;;15.20;52.00;;;;;;5052404;28;20213;-57
2023/03/17 00:32:13;;;;;;;1.92;1.83;;;15.20;52.00;;;;;;5052965;28;20171;-58
2023/03/17 00:34:39;;;;;;;1.85;1.75;;;15.20;52.00;;;;;;5035708;28;20179;-58
2023/03/17 00:37:04;;;;;;;1.83;1.73;;;15.20;52.00;;;;;;5051136;28;20175;-57
2023/03/17 00:39:30;;;;;;;2.17;1.88;;;15.20;52.00;;;;;;5052819;28;20205;-58
2023/03/17 00:41:56;;;;;;;2.47;1.77;;;15.20;52.00;;;;;;5052665;28;20179;-58
2023/03/17 00:44:21;;;;;;;1.77;1.67;;;15.20;52.00;;;;;;5052184;28;20214;-59
2023/03/17 00:46:47;;;;;;;2.58;1.90;;;15.20;52.00;;;;;;5052713;28;20170;-58
2023/03/17 00:49:20;;;;;;;1.90;1.80;;;15.20;52.00;;;;;;5052801;28;20175;-53
2023/03/17 00:51:45;;;;;;;2.10;1.80;;;15.20;52.00;;;;;;5051389;28;20179;-55
2023/03/17 00:54:11;;;;;;;1.70;1.60;;;15.20;52.00;;;;;;5052621;28;20194;-57
2023/03/17 00:56:37;;;;;;;1.80;1.70;;;15.20;52.00;;;;;;5052122;28;20326;-56
2023/03/17 00:59:02;;;;;;;2.00;1.90;;;15.10;52.00;;;;;;5051112;28;20178;-58
2023/03/17 01:01:28;;;;;;;2.05;1.85;;;15.20;52.00;;;;;;5052692;28;20557;-58
2023/03/17 01:03:54;;;;;;;2.03;1.92;;;15.10;52.00;;;;;;5051344;28;20207;-59
2023/03/17 01:06:19;;;;;;;1.60;1.50;;;15.10;52.00;;;;;;5052562;28;20270;-57
2023/03/17 01:08:46;;;;;;;2.15;1.95;;;15.20;52.10;;;;;;5052038;28;20353;-58
2023/03/17 01:11:14;;;;;;;1.70;1.60;;;15.10;52.00;;;;;;5050455;28;20179;-57
2023/03/17 01:13:40;;;;;;;1.83;1.60;;;15.10;52.10;;;;;;5051497;28;20177;-58
2023/03/17 01:16:08;;;;;;;2.00;1.83;;;15.10;52.00;;;;;;5052168;28;20175;-58
2023/03/17 01:18:34;;;;;;;3.88;1.75;;;15.10;52.00;;;;;;5051490;28;20219;-58
2023/03/17 01:21:00;;;;;;;1.60;1.50;;;15.10;52.10;;;;;;5052042;28;20178;-57
2023/03/17 01:23:26;;;;;;;1.95;1.85;;;15.10;52.10;;;;;;5052282;28;20645;-57
2023/03/17 01:25:51;;;;;;;1.85;1.73;;;15.10;52.10;;;;;;5051143;28;20284;-57
2023/03/17 01:28:17;;;;;;;1.90;1.80;;;15.10;52.10;;;;;;5052435;28;20171;-58
2023/03/17 01:30:43;;;;;;;1.50;1.40;;;15.10;52.80;;;;;;5052045;28;20179;-59
2023/03/17 01:33:10;;;;;;;1.95;1.70;;;15.10;52.10;;;;;;5051367;28;20630;-58
2023/03/17 01:35:37;;;;;;;1.40;1.30;;;15.10;52.70;;;;;;5052173;28;20530;-58
2023/03/17 01:38:02;;;;;;;1.92;1.80;;;15.10;52.10;;;;;;5051739;28;20187;-56
2023/03/17 01:40:32;;;;;;;2.30;1.60;;;15.10;52.10;;;;;;5051421;28;20618;-58
2023/03/17 01:43:07;;;;;;;2.83;1.98;;;15.10;52.20;;;;;;5050705;28;20187;-58
2023/03/17 01:46:24;;;;;;;2.33;1.40;;;15.00;52.10;;;;;;5050781;28;20292;-56
2023/03/17 01:49:03;;;;;;;1.58;1.48;;;15.10;52.10;;;;;;5043915;28;20270;-57
2023/03/17 01:51:43;;;;;;;1.70;1.60;;;15.00;52.10;;;;;;5056535;28;20178;-57
2023/03/17 01:54:10;;;;;;;1.60;1.50;;;15.10;52.20;;;;;;5055503;28;20228;-56
2023/03/17 01:56:36;;;;;;;1.20;1.20;;;15.00;52.10;;;;;;5056060;28;20179;-57
2023/03/17 01:59:03;;;;;;;1.67;1.58;;;15.00;52.10;;;;;;5056280;28;20187;-57
2023/03/17 02:01:32;;;;;;;1.60;1.50;;;15.00;52.10;;;;;;5054364;28;20183;-58
2023/03/17 02:03:58;;;;;;;1.58;1.42;;;15.00;52.10;;;;;;5054540;28;20198;-59
2023/03/17 02:06:24;;;;;;;1.55;1.45;;;15.00;52.10;;;;;;5056202;28;20179;-57
2023/03/17 02:08:50;;;;;;;1.70;1.60;;;15.00;52.10;;;;;;5053818;28;20225;-58
2023/03/17 02:11:16;;;;;;;2.22;2.03;;;15.00;52.10;;;;;;5055734;28;20229;-57
2023/03/17 02:13:45;;;;;;;1.70;1.60;;;15.00;52.20;;;;;;5054953;28;20179;-57
2023/03/17 02:16:14;;;;;;;1.65;1.55;;;15.00;52.20;;;;;;5054757;28;20175;-58
2023/03/17 02:18:40;;;;;;;1.60;1.50;;;15.00;52.10;;;;;;5055670;28;20227;-58
2023/03/17 02:21:31;;;;;;;1.75;1.65;;;15.10;52.20;;;;;;5054966;28;20317;-56
2023/03/17 02:23:59;;;;;;;1.80;1.60;;;15.00;52.20;;;;;;5055401;28;20559;-57
2023/03/17 02:26:24;;;;;;;1.92;1.75;;;15.00;52.20;;;;;;5054520;28;20257;-58
2023/03/17 02:28:50;;;;;;;2.05;1.85;;;15.00;52.20;;;;;;5053342;28;20690;-57
2023/03/17 02:31:16;;;;;;;2.08;1.63;;;15.00;52.20;;;;;;5055321;28;20175;-57
2023/03/17 02:33:41;;;;;;;1.40;1.10;;;15.00;52.20;;;;;;5054071;28;20220;-58
2023/03/17 02:36:08;;;;;;;1.30;1.20;;;15.00;52.20;;;;;;5054699;28;20179;-58
2023/03/17 02:38:34;;;;;;;1.77;1.67;;;15.00;52.20;;;;;;5055583;28;20206;-58
2023/03/17 02:41:00;;;;;;;1.40;1.30;;;14.90;52.20;;;;;;5054982;28;20575;-58
2023/03/17 02:43:25;;;;;;;1.70;1.60;;;14.90;52.20;;;;;;5054744;28;20190;-58
2023/03/17 02:45:51;;;;;;;1.50;1.40;;;14.90;52.20;;;;;;5054957;28;20246;-57
2023/03/17 02:48:16;;;;;;;1.30;1.20;;;14.90;52.30;;;;;;5055134;28;20168;-58
2023/03/17 02:50:42;;;;;;;1.90;1.65;;;15.00;52.30;;;;;;5036127;28;20190;-57
2023/03/17 02:53:08;;;;;;;1.40;1.30;;;15.00;52.30;;;;;;5055022;28;20229;-56
2023/03/17 02:55:33;;;;;;;1.73;1.30;;;14.90;52.30;;;;;;5055076;28;20258;-56
2023/03/17 02:58:01;;;;;;;1.50;1.40;;;14.90;52.90;;;;;;5053347;28;20167;-57
2023/03/17 03:00:27;;;;;;;2.67;1.35;;;15.00;52.30;;;;;;5054770;28;20189;-58
2023/03/17 03:02:52;;;;;;;1.52;1.42;;;14.90;52.20;;;;;;5054423;28;20186;-58
2023/03/17 03:05:18;;;;;;;1.52;1.42;;;14.90;52.20;;;;;;5054410;28;20213;-58
2023/03/17 03:07:44;;;;;;;1.33;1.30;;;14.90;52.30;;;;;;5054802;28;20290;-58
2023/03/17 03:10:10;;;;;;;1.70;1.60;;;14.90;52.30;;;;;;5054249;28;20254;-58
2023/03/17 03:12:35;;;;;;;2.05;1.67;;;14.90;52.30;;;;;;5054676;28;20279;-56
2023/03/17 03:15:01;;;;;;;1.33;1.17;;;14.90;52.30;;;;;;5054421;28;20564;-58
2023/03/17 03:17:26;;;;;;;1.60;1.50;;;14.90;52.30;;;;;;5054077;28;20237;-58
2023/03/17 03:19:55;;;;;;;1.48;1.40;;;14.90;52.30;;;;;;5054038;28;20230;-57
2023/03/17 03:22:20;;;;;;;1.48;1.38;;;14.90;52.30;;;;;;5054544;28;20229;-57
2023/03/17 03:24:46;;;;;;;1.40;1.30;;;14.80;52.20;;;;;;5053499;28;20210;-58
2023/03/17 03:27:11;;;;;;;1.13;1.13;;;14.80;52.30;;;;;;5055040;28;20217;-57
2023/03/17 03:29:37;;;;;;;1.50;1.30;;;14.90;52.30;;;;;;5054501;28;20224;-56
2023/03/17 03:32:03;;;;;;;1.60;1.50;;;14.90;52.30;;;;;;5053319;28;20266;-57
2023/03/17 03:34:28;;;;;;;1.50;1.40;;;14.80;52.30;;;;;;5053959;28;20258;-58
2023/03/17 03:36:54;;;;;;;1.60;1.50;;;14.80;52.30;;;;;;5053496;28;20171;-57
2023/03/17 03:39:19;;;;;;;1.30;1.20;;;14.80;52.20;;;;;;5053364;28;20172;-57
2023/03/17 03:41:45;;;;;;;1.45;1.35;;;14.80;52.30;;;;;;5053929;28;20175;-58
2023/03/17 03:44:10;;;;;;;1.50;1.40;;;14.80;52.30;;;;;;5054126;28;20206;-58
2023/03/17 03:47:02;;;;;;;1.35;1.25;;;14.80;52.30;;;;;;5053232;28;20171;-62
2023/03/17 03:49:28;;;;;;;3.08;1.80;;;14.80;52.30;;;;;;5052865;28;20185;-57
2023/03/17 03:51:53;;;;;;;1.50;1.40;;;14.80;52.30;;;;;;5053522;28;20179;-55
2023/03/17 03:54:21;;;;;;;1.50;1.40;;;14.80;52.30;;;;;;5053099;28;20179;-56
2023/03/17 03:56:47;;;;;;;1.73;1.63;;;14.80;52.30;;;;;;5053544;28;20179;-57
2023/03/17 03:59:13;;;;;;;1.40;1.30;;;14.80;52.30;;;;;;5053166;28;20317;-58
2023/03/17 04:01:42;;;;;;;1.40;1.30;;;14.80;52.30;;;;;;5053524;28;20254;-59
2023/03/17 04:04:07;;;;;;;2.25;1.48;;;14.80;52.30;;;;;;5053773;28;20199;-58
2023/03/17 04:06:33;;;;;;;1.40;1.30;;;14.80;52.30;;;;;;5052688;28;20673;-58
2023/03/17 04:08:58;;;;;;;2.10;1.90;;;14.80;52.30;;;;;;5053294;28;20171;-58
2023/03/17 04:11:24;;;;;;;1.35;1.25;;;14.80;52.30;;;;;;5052772;28;20250;-57
2023/03/17 04:13:50;;;;;;;1.70;1.60;;;14.80;52.30;;;;;;5052339;28;20578;-56
2023/03/17 04:16:15;;;;;;;2.30;1.38;;;14.80;52.30;;;;;;5053334;28;20186;-56
2023/03/17 04:18:41;;;;;;;1.42;1.33;;;14.80;52.40;;;;;;5053006;28;20223;-58
2023/03/17 04:21:07;;;;;;;1.30;1.20;;;14.70;52.30;;;;;;5052631;28;20179;-56
2023/03/17 04:23:33;;;;;;;1.42;1.33;;;14.80;52.30;;;;;;5053196;28;20183;-56
2023/03/17 04:25:58;;;;;;;3.03;1.40;;;14.80;52.30;;;;;;5052792;28;20309;-57
2023/03/17 04:28:24;;;;;;;1.40;1.30;;;14.80;52.30;;;;;;5051060;28;20597;-57
2023/03/17 04:30:49;;;;;;;1.40;1.30;;;14.80;52.30;;;;;;5051148;28;20182;-58
2023/03/17 04:33:15;;;;;;;1.38;1.27;;;14.70;52.30;;;;;;5052773;28;20583;-58
2023/03/17 04:35:41;;;;;;;1.63;1.52;;;14.70;52.30;;;;;;5051873;28;20178;-59
2023/03/17 04:38:07;;;;;;;1.10;1.00;;;14.70;52.30;;;;;;5052713;28;20202;-58
2023/03/17 04:40:33;;;;;;;1.48;1.13;;;14.70;52.30;;;;;;5052421;28;20179;-57
2023/03/17 04:42:58;;;;;;;1.48;1.38;;;14.70;52.40;;;;;;5051605;28;20241;-58
2023/03/17 04:45:24;;;;;;;1.15;1.13;;;14.70;52.30;;;;;;5052753;28;20211;-58
2023/03/17 04:47:50;;;;;;;1.63;1.52;;;14.70;52.40;;;;;;5052705;28;20252;-59
2023/03/17 04:50:16;;;;;;;1.42;1.33;;;14.70;52.40;;;;;;5052260;28;20241;-57
2023/03/17 04:52:42;;;;;;;1.50;1.40;;;14.70;52.40;;;;;;5052373;28;20650;-56
2023/03/17 04:55:08;;;;;;;1.52;1.42;;;14.70;52.40;;;;;;5052682;28;20682;-56
2023/03/17 04:57:34;;;;;;;1.50;1.40;;;14.70;52.40;;;;;;5051991;28;20534;-58
2023/03/17 05:00:00;;;;;;;1.55;1.45;;;14.70;52.40;;;;;;5052118;28;20179;-58
2023/03/17 05:02:25;;;;;;;1.70;1.60;;;14.70;52.50;;;;;;5052520;28;20579;-59
2023/03/17 05:04:51;;;;;;;1.48;1.38;;;14.70;52.40;;;;;;5051393;28;20803;-59
2023/03/17 05:07:16;;;;;;;1.92;1.40;;;14.60;52.30;;;;;;5052599;28;20697;-59
2023/03/17 05:09:42;;;;;;;3.75;1.40;;;14.60;52.40;;;;;;5051547;28;20266;-58
2023/03/17 05:12:11;;;;;;;1.42;1.33;;;14.60;52.40;;;;;;5052338;28;20171;-58
2023/03/17 05:14:37;;;;;;;1.30;1.20;;;14.60;52.40;;;;;;5052330;28;20202;-58
2023/03/17 05:17:02;;;;;;;1.33;1.23;;;14.60;52.40;;;;;;5051588;28;20555;-58
2023/03/17 05:19:28;;;;;;;1.30;1.20;;;14.60;52.40;;;;;;5052076;28;20225;-58
2023/03/17 05:21:53;;;;;;;1.73;1.27;;;14.60;52.40;;;;;;5051880;28;20216;-57
2023/03/17 05:24:19;;;;;;;1.40;1.30;;;14.60;52.40;;;;;;5051621;28;20191;-58
2023/03/17 05:26:45;;;;;;;1.70;1.20;;;14.60;52.40;;;;;;5052043;28;20175;-58
2023/03/17 05:29:10;;;;;;;1.70;1.10;;;14.60;52.40;;;;;;5052309;28;20210;-58
2023/03/17 05:31:36;;;;;;;1.45;1.30;;;14.60;52.40;;;;;;5051529;28;20186;-58
2023/03/17 05:34:02;;;;;;;1.40;1.30;;;14.60;52.40;;;;;;5052113;28;20179;-57
2023/03/17 05:36:27;;;;;;;1.30;1.20;;;14.60;52.40;;;;;;5052310;28;20202;-58
2023/03/17 05:38:53;;;;;;;1.30;1.20;;;14.60;52.40;;;;;;5051009;28;20622;-57
2023/03/17 05:41:19;;;;;;;1.17;1.08;;;14.60;52.40;;;;;;5052196;28;20262;-58
2023/03/17 05:43:44;;;;;;;1.60;1.50;;;14.60;52.40;;;;;;5051752;28;20167;-58
2023/03/17 05:46:10;;;;;;;1.10;1.02;;;14.60;52.50;;;;;;5051263;28;20179;-58
2023/03/17 05:48:35;;;;;;;1.30;1.20;;;14.60;52.40;;;;;;5052028;28;20175;-58
2023/03/17 05:51:01;;;;;;;1.38;1.27;;;14.60;52.40;;;;;;5051842;28;20191;-60
2023/03/17 05:53:27;;;;;;;1.15;1.15;;;14.60;52.40;;;;;;5051575;28;20182;-58
2023/03/17 05:55:53;;;;;;;1.50;1.40;;;14.60;52.40;;;;;;5051851;28;20175;-57
2023/03/17 05:58:19;;;;;;;1.50;1.40;;;14.60;52.50;;;;;;5051825;28;20175;-58
2023/03/17 06:00:45;;;;;;;1.52;1.27;;;14.60;52.50;;;;;;5051199;28;20178;-59
2023/03/17 06:03:10;;;;;;;1.10;1.10;;;14.60;52.50;;;;;;5052164;28;20171;-58
2023/03/17 06:05:36;;;;;;;1.05;1.00;;;14.60;52.40;;;;;;5051928;28;20690;-58
2023/03/17 06:08:03;;;;;;;1.48;1.38;;;14.70;52.40;;;;;;5050857;28;20747;-58
2023/03/17 06:10:29;;;;;;;1.38;1.27;;;14.80;52.30;;;;;;5051805;28;20191;-58
2023/03/17 06:12:55;;;;;;;1.42;1.33;;;14.90;52.10;;;;;;5050828;28;20250;-58
2023/03/17 06:15:21;;;;;;;1.05;1.05;;;15.10;52.00;;;;;;5052038;28;20673;-57
2023/03/17 06:17:46;;;;;;;1.10;1.10;;;15.20;51.80;;;;;;5051392;28;20703;-58
2023/03/17 06:20:13;;;;;;;1.00;1.00;;;15.40;51.60;;;;;;5051182;28;20567;-58
2023/03/17 06:22:38;;;;;;;1.45;1.20;;;15.60;51.40;;;;;;5051843;28;20194;-58
2023/03/17 06:25:04;;;;;;;1.10;1.10;;;15.80;51.10;;;;;;5051354;28;20262;-57
2023/03/17 06:27:30;;;;;;;1.00;1.00;;;15.90;50.90;;;;;;5050987;28;20221;-57
2023/03/17 06:29:56;;;;;;;1.13;1.13;;;16.10;50.60;;;;;;5051546;28;20639;-57
2023/03/17 06:32:22;;;;;;;1.02;1.00;;;16.20;50.30;;;;;;5051881;28;20182;-58
2023/03/17 06:34:47;;;;;;;1.25;1.15;;;16.30;50.20;;;;;;5053158;28;20175;-58
2023/03/17 06:37:13;;;;;;;0.95;0.90;;;16.30;50.20;;;;;;5055336;28;20618;-58
2023/03/17 06:39:40;;;;;;;0.95;0.95;;;16.30;50.20;;;;;;5055352;28;20213;-58
2023/03/17 06:42:06;;;;;;;1.05;1.05;;;16.40;50.20;;;;;;5054218;28;20483;-58
2023/03/17 06:44:32;;;;;;;1.27;1.17;;;16.40;50.20;;;;;;5055269;28;20219;-58
2023/03/17 06:46:57;;;;;;;1.20;1.20;;;16.50;50.20;;;;;;5055069;28;20728;-58
2023/03/17 06:49:23;;;;;;;1.02;1.00;;;16.50;50.20;;;;;;5054536;28;20601;-56
2023/03/17 06:51:49;;;;;;;1.90;1.50;;;16.50;50.10;;;;;;5054675;28;20694;-56
2023/03/17 06:54:15;;;;;;;1.52;1.27;;;16.50;50.10;;;;;;5054840;28;20251;-56
2023/03/17 06:56:41;;;;;;;1.65;1.25;;;16.50;50.10;;;;;;5054077;28;20652;-56
2023/03/17 06:59:06;;;;;;;1.40;1.30;;;16.60;50.10;;;;;;5054932;28;20178;-58
2023/03/17 07:01:32;;;;;;;1.17;1.08;;;16.60;50.10;;;;;;5054914;28;20186;-57
2023/03/17 07:03:58;;;;;;;1.48;1.38;;;16.70;50.20;;;;;;5053925;28;20176;-59
2023/03/17 07:06:23;;;;;;;1.52;1.33;;;16.90;50.00;;;;;;5054804;28;20175;-58
2023/03/17 07:08:49;;;;;;;1.58;1.38;;;17.10;49.50;;;;;;5054314;28;20187;-58
2023/03/17 07:11:15;;;;;;;1.40;1.30;;;17.30;49.30;;;;;;5053848;28;20193;-57
2023/03/17 07:13:41;;;;;;;1.67;1.42;;;17.40;49.10;;;;;;5055274;28;20195;-57
2023/03/17 07:16:07;;;;;;;1.35;1.25;;;17.50;48.80;;;;;;5054194;28;20556;-56
2023/03/17 07:18:33;;;;;;;1.58;1.48;;;17.80;48.60;;;;;;5054267;28;20241;-59
2023/03/17 07:21:00;;;;;;;1.50;1.40;;;17.90;48.40;;;;;;5054372;28;20285;-57
2023/03/17 07:23:26;;;;;;;1.60;1.50;;;17.90;48.30;;;;;;5053667;28;20257;-58
2023/03/17 07:25:51;;;;;;;1.50;1.40;;;17.90;48.20;;;;;;5053993;28;20686;-57
2023/03/17 07:28:20;;;;;;;1.30;1.20;;;17.90;48.30;;;;;;5054195;28;20183;-59
2023/03/17 07:30:48;;;;;;;1.38;1.13;;;17.90;48.40;;;;;;5053431;28;20183;-58
2023/03/17 07:33:13;;;;;;;1.40;1.30;;;17.90;48.40;;;;;;5054186;28;20634;-57
2023/03/17 07:35:39;;;;;;;1.60;1.40;;;17.90;48.40;;;;;;5054052;28;20190;-57
2023/03/17 07:38:04;;;;;;;1.45;1.35;;;17.90;48.50;;;;;;5053132;28;20174;-59
2023/03/17 07:40:30;;;;;;;1.58;1.45;;;17.90;48.60;;;;;;5054023;28;20225;-58
2023/03/17 07:42:56;;;;;;;1.27;1.17;;;17.90;48.60;;;;;;5053930;28;20198;-59
2023/03/17 07:45:21;;;;;;;1.42;1.33;;;17.90;48.70;;;;;;5053331;28;20215;-58
2023/03/17 07:47:47;;;;;;;1.73;1.35;;;17.80;48.70;;;;;;5053758;28;20171;-58
2023/03/17 07:50:13;;;;;;;1.02;1.02;;;17.80;48.80;;;;;;5054033;28;20257;-58
2023/03/17 07:52:38;;;;;;;1.40;1.30;;;17.80;48.80;;;;;;5053288;28;20250;-58
2023/03/17 07:55:07;;;;;;;1.40;1.30;;;17.80;48.90;;;;;;5053435;28;20513;-58
2023/03/17 07:57:33;;;;;;;1.45;1.35;;;17.80;49.00;;;;;;5054009;28;20179;-59
2023/03/17 07:59:58;;;;;;;1.23;1.13;;;17.70;49.10;;;;;;5052943;28;20622;-58
2023/03/17 08:02:24;;;;;;;1.10;1.10;;;17.80;49.10;;;;;;5053505;28;20167;-59
2023/03/17 08:04:49;;;;;;;1.23;1.13;;;17.70;49.10;;;;;;5053265;28;20209;-59
2023/03/17 08:07:15;;;;;;;1.10;1.00;;;17.80;49.20;;;;;;5052674;28;20183;-59
2023/03/17 08:09:40;;;;;;;1.42;1.33;;;17.70;49.20;;;;;;5053539;28;20175;-57
2023/03/17 08:12:07;;;;;;;1.63;1.52;;;17.80;49.20;;;;;;5053211;28;20172;-58
2023/03/17 08:14:33;;;;;;;1.40;1.30;;;17.70;49.30;;;;;;5052673;28;20186;-58
2023/03/17 08:16:58;;;;;;;1.48;1.38;;;17.70;49.40;;;;;;5053151;28;20225;-58
2023/03/17 08:19:24;;;;;;;1.33;1.23;;;17.60;49.50;;;;;;5052505;28;20214;-59
2023/03/17 08:21:49;;;;;;;1.55;1.40;;;17.50;49.60;;;;;;5052695;28;20175;-57
2023/03/17 08:24:15;;;;;;;1.10;1.10;;;17.40;49.70;;;;;;5053334;28;20336;-58
2023/03/17 08:26:42;;;;;;;1.10;1.00;;;17.40;49.90;;;;;;5052668;28;20229;-58
2023/03/17 08:29:08;;;;;;;1.40;1.30;;;17.30;50.00;;;;;;5053272;28;20175;-58
2023/03/17 08:31:34;;;;;;;0.98;0.95;;;17.30;50.20;;;;;;5053012;28;20262;-58
2023/03/17 08:34:01;;;;;;;1.10;1.08;;;17.20;50.30;;;;;;5052041;28;20175;-59
2023/03/17 08:36:27;;;;;;;1.13;1.10;;;17.10;50.50;;;;;;5052970;28;20262;-59
2023/03/17 08:38:53;;;;;;;1.00;1.00;;;17.10;50.60;;;;;;5052882;28;20265;-59
2023/03/17 08:41:20;;;;;;;1.00;1.00;;;17.10;50.70;;;;;;5052279;28;20180;-58
2023/03/17 08:43:46;;;;;;;1.40;1.30;;;17.10;50.70;;;;;;5052403;28;20263;-59
2023/03/17 08:46:20;;;;;;;1.30;1.20;;;17.10;50.70;;;;;;5052738;28;20269;-58
2023/03/17 08:48:46;;;;;;;1.35;1.25;;;17.20;50.80;;;;;;5051868;28;20175;-58
2023/03/17 08:51:13;;;;;;;1.23;1.13;;;17.20;50.70;;;;;;5052764;28;20199;-59
2023/03/17 08:53:38;;;;;;;1.20;1.13;;;17.20;50.70;;;;;;5052897;28;20608;-58
2023/03/17 08:56:05;;;;;;;1.00;1.00;;;17.30;50.70;;;;;;5051387;28;20250;-58
2023/03/17 08:58:31;;;;;;;1.10;1.10;;;17.30;50.70;;;;;;5052411;28;20589;-59
2023/03/17 09:01:00;;;;;;;1.00;1.00;;;17.30;50.70;;;;;;5051871;28;20262;-59
2023/03/17 09:03:26;;;;;;;1.30;1.20;;;17.20;50.70;;;;;;5051508;28;20179;-67
2023/03/17 09:05:51;;;;;;;1.67;1.10;;;17.20;50.80;;;;;;5051811;28;20214;-65
2023/03/17 09:08:17;;;;;;;1.25;1.15;;;17.10;50.90;;;;;;5052454;28;20171;-65
2023/03/17 09:10:42;;;;;;;1.30;1.20;;;17.10;51.10;;;;;;5051476;28;20183;-64
2023/03/17 09:13:09;;;;;;;3.22;1.10;;;17.20;51.50;;;;;;5052745;28;20174;-64
2023/03/17 09:15:34;;;;;;;1.77;1.38;;;17.10;51.70;;;;;;5052267;28;20554;-64
2023/03/17 09:18:00;;;;;;;2.45;1.20;;;17.10;52.00;;;;;;5050961;28;20667;-62
2023/03/17 09:20:26;;;;;;;2.65;1.30;;;17.10;52.20;;;;;;5052104;28;20186;-65
2023/03/17 09:22:51;;;;;;;1.42;1.27;;;17.00;52.40;;;;;;5051320;28;20262;-65
2023/03/17 09:25:17;;;;;;;1.63;1.48;;;16.90;52.50;;;;;;5052125;28;20222;-64
2023/03/17 09:27:46;;;;;;;1.80;1.40;;;17.00;52.60;;;;;;5051753;28;20258;-71
2023/03/17 09:30:15;;;;;;;2.05;1.50;;;17.00;52.70;;;;;;5051341;28;20187;-72
2023/03/17 09:32:41;;;;;;;2.08;1.42;;;17.00;52.70;;;;;;5051943;28;20641;-68
2023/03/17 09:35:07;;;;;;;1.63;1.40;;;17.00;52.70;;;;;;5052056;28;20179;-68
2023/03/17 09:37:33;;;;;;;3.55;1.48;;;17.00;52.70;;;;;;5051563;28;20198;-67
2023/03/17 09:39:58;;;;;;;3.47;1.65;;;17.00;52.80;;;;;;5051799;28;20194;-66
2023/03/17 09:42:46;;;;;;;5.07;1.73;;;17.00;52.80;;;;;;5051671;28;20167;-66
2023/03/17 09:45:22;;;;;;;2.28;1.50;;;16.90;52.80;;;;;;5050462;28;20294;-65
2023/03/17 09:48:09;;;;;;;1.88;1.25;;;16.90;52.90;;;;;;5050493;28;20175;-67
2023/03/17 09:50:58;;;;;;;2.30;1.23;;;17.00;53.00;;;;;;5048481;28;20225;-66
2023/03/17 09:53:34;;;;;;;2.78;1.65;;;17.00;52.90;;;;;;5045410;28;20183;-66
2023/03/17 09:56:33;;;;;;;1.95;1.42;;;17.00;52.90;;;;;;5048226;28;20669;-66
2023/03/17 09:59:02;;;;;;;2.60;1.45;;;17.00;52.80;;;;;;5048340;28;20270;-67
2023/03/17 10:01:31;;;;;;;3.28;1.67;;;17.10;52.80;;;;;;5050675;28;20167;-67
2023/03/17 10:03:57;;;;;;;3.20;1.40;;;17.10;52.80;;;;;;5048628;28;20175;-66
2023/03/17 10:06:41;;;;;;;2.70;1.67;;;17.10;52.90;;;;;;5050754;28;20191;-67
2023/03/17 10:09:25;;;;;;;3.53;2.10;;;17.10;52.80;;;;;;5052616;28;20251;-66
2023/03/17 10:11:57;;;;;;;1.73;1.38;;;17.10;52.80;;;;;;5052738;28;20615;-64
2023/03/17 10:14:39;;;;;;;4.10;1.60;;;17.10;52.90;;;;;;5054074;28;20209;-66
2023/03/17 10:17:19;;;;;;;2.53;1.30;;;17.20;52.90;;;;;;5053732;28;20175;-66
2023/03/17 10:19:58;;;;;;;2.22;1.55;;;17.20;52.90;;;;;;5053159;28;20226;-65
2023/03/17 10:22:46;;;;;;;2.17;1.30;;;17.20;52.80;;;;;;5052649;28;20591;-65
2023/03/17 10:25:20;;;;;;;2.10;1.60;;;17.20;52.80;;;;;;5055056;28;20536;-66
2023/03/17 10:28:04;;;;;;;2.95;1.33;;;17.20;52.90;;;;;;5054238;28;20197;-67
2023/03/17 10:30:32;;;;;;;3.90;1.60;;;17.20;52.90;;;;;;5040655;28;20186;-67
2023/03/17 10:33:01;;;;;;;2.95;1.50;;;17.30;53.10;;;;;;5034597;28;20176;-66
2023/03/17 10:35:27;;;;;;;2.83;1.33;;;17.30;53.00;;;;;;5035051;28;20195;-66
2023/03/17 10:37:53;;;;;;;2.60;1.30;;;17.30;53.00;;;;;;5035193;28;20176;-66
2023/03/17 10:40:27;;;;;;;1.60;1.17;;;17.30;52.90;;;;;;5034936;28;20270;-66
2023/03/17 10:43:06;;;;;;;3.17;1.38;;;17.30;52.90;;;;;;5035169;28;20179;-66
2023/03/17 10:45:33;;;;;;;1.23;1.13;;;17.30;52.90;;;;;;5035242;28;20238;-65
2023/03/17 10:48:00;;;;;;;2.65;1.40;;;17.40;52.90;;;;;;5034184;28;20234;-66
2023/03/17 10:50:39;;;;;;;2.45;1.40;;;17.40;52.80;;;;;;5050571;28;20254;-68
2023/03/17 10:53:19;;;;;;;3.38;1.30;;;17.40;52.80;;;;;;5034838;28;20274;-67
2023/03/17 10:55:51;;;;;;;1.55;1.45;;;17.40;52.90;;;;;;5034254;28;20179;-68
2023/03/17 10:58:18;;;;;;;1.40;1.30;;;17.40;52.80;;;;;;5033861;28;20184;-68
2023/03/17 11:01:06;;;;;;;1.83;1.33;;;17.40;52.80;;;;;;5048948;28;20183;-68
2023/03/17 11:03:34;;;;;;;2.15;1.23;;;17.40;53.40;;;;;;5033320;28;20183;-68
2023/03/17 11:06:01;;;;;;;1.88;1.30;;;17.40;52.80;;;;;;5048688;28;20216;-68
2023/03/17 11:08:30;;;;;;;1.77;1.10;;;17.30;52.80;;;;;;5033089;28;20176;-68
2023/03/17 11:10:56;;;;;;;1.58;1.48;;;17.30;52.70;;;;;;5033605;28;20190;-67
2023/03/17 11:13:24;;;;;;;1.48;1.38;;;17.30;52.70;;;;;;5034555;28;20175;-68
2023/03/17 11:15:53;;;;;;;2.00;1.60;;;17.30;52.70;;;;;;5032235;28;20722;-67
2023/03/17 11:18:22;;;;;;;4.82;1.67;;;17.30;52.70;;;;;;5033384;28;20215;-68
2023/03/17 11:20:53;;;;;;;1.90;1.70;;;17.30;52.70;;;;;;5032626;28;20176;-67
2023/03/17 11:23:37;;;;;;;3.13;1.40;;;17.30;52.70;;;;;;5049162;28;20733;-67
2023/03/17 11:26:07;;;;;;;1.67;1.50;;;17.40;52.70;;;;;;5034141;28;20250;-68
2023/03/17 11:28:36;;;;;;;2.60;1.55;;;17.30;52.60;;;;;;5050133;28;20176;-68
2023/03/17 11:31:32;;;;;;;2.97;1.63;;;17.40;52.60;;;;;;5032298;28;20267;-68
2023/03/17 11:34:17;;;;;;;1.83;1.30;;;17.70;52.70;;;;;;5033170;28;20237;-68
2023/03/17 11:37:05;;;;;;;1.52;1.40;;;17.30;52.60;;;;;;5032420;28;20172;-67
2023/03/17 11:39:46;;;;;;;1.83;1.50;;;17.30;52.60;;;;;;5034431;28;20222;-68
2023/03/17 11:42:20;;;;;;;2.13;1.50;;;17.30;52.60;;;;;;5048416;28;20654;-67
2023/03/17 11:45:00;;;;;;;1.38;1.20;;;17.30;52.70;;;;;;5048110;28;20264;-66
2023/03/17 11:47:44;;;;;;;1.75;1.40;;;17.20;52.70;;;;;;5049202;28;20604;-67
2023/03/17 11:50:28;;;;;;;2.38;1.48;;;17.30;52.70;;;;;;5033630;28;20669;-67
2023/03/17 11:53:03;;;;;;;2.03;1.67;;;17.20;52.80;;;;;;5033353;28;20736;-67
2023/03/17 11:55:42;;;;;;;2.13;1.42;;;17.20;52.80;;;;;;5033543;28;20266;-68
2023/03/17 11:58:40;;;;;;;1.48;1.38;;;17.20;52.80;;;;;;5031780;28;20207;-68
2023/03/17 12:01:10;;;;;;;2.42;1.27;;;17.30;52.70;;;;;;5028555;28;20184;-68
2023/03/17 12:03:37;;;;;;;2.15;1.45;;;17.40;52.60;;;;;;5048427;28;20789;-67
2023/03/17 12:06:04;;;;;;;1.85;1.20;;;17.40;52.60;;;;;;5032571;28;20331;-68
2023/03/17 12:09:06;;;;;;;2.05;1.52;;;17.40;52.60;;;;;;5048655;28;20330;-67
2023/03/17 12:11:33;;;;;;;2.78;1.33;;;17.40;52.60;;;;;;5033031;28;20187;-68
2023/03/17 12:14:17;;;;;;;1.42;1.33;;;17.40;52.50;;;;;;5032066;28;20210;-67
2023/03/17 12:16:46;;;;;;;1.50;1.40;;;17.50;53.10;;;;;;5053861;28;20179;-68
2023/03/17 12:19:26;;;;;;;1.85;1.40;;;17.50;52.40;;;;;;5052185;28;20235;-67
2023/03/17 12:22:12;;;;;;;1.63;1.52;;;17.50;52.40;;;;;;5051781;28;20182;-68
2023/03/17 12:24:51;;;;;;;1.45;1.10;;;17.50;52.30;;;;;;5051970;28;20610;-68
2023/03/17 12:27:27;;;;;;;1.88;1.60;;;17.60;52.40;;;;;;5052370;28;20294;-69
2023/03/17 12:30:27;;;;;;;1.52;1.40;;;17.50;52.50;;;;;;5051582;28;20183;-68
2023/03/17 12:33:10;;;;;;;1.40;1.30;;;17.50;52.40;;;;;;5049997;28;20190;-69
2023/03/17 12:35:37;;;;;;;1.70;1.58;;;17.60;52.50;;;;;;5051668;28;20175;-69
2023/03/17 12:38:24;;;;;;;2.10;1.50;;;17.60;52.40;;;;;;5052534;28;20190;-67
2023/03/17 12:41:14;;;;;;;1.42;1.33;;;17.60;52.40;;;;;;5050734;28;20183;-67
2023/03/17 12:44:06;;;;;;;1.55;1.40;;;17.60;52.40;;;;;;5051668;28;20186;-68
2023/03/17 12:46:36;;;;;;;2.15;1.42;;;17.60;52.40;;;;;;5052497;28;20183;-67
2023/03/17 12:49:25;;;;;;;1.50;1.30;;;17.60;52.40;;;;;;5050660;28;20369;-66
2023/03/17 12:52:00;;;;;;;1.30;1.20;;;17.60;52.40;;;;;;5042014;28;20187;-67
2023/03/17 12:54:27;;;;;;;1.40;1.30;;;17.60;52.40;;;;;;5050457;28;20170;-67
2023/03/17 12:56:52;;;;;;;2.17;1.60;;;17.60;52.40;;;;;;5050913;28;20262;-68